createdAt,value
2023-05-20T00:01:43.159Z,86.93
2023-05-20T00:04:28.605Z,87.20
2023-05-20T00:07:14.243Z,87.20
2023-05-20T00:09:59.895Z,87.87
2023-05-20T00:12:45.786Z,88.58
2023-05-20T00:15:32.248Z,88.63
2023-05-20T00:18:18.149Z,89.06
2023-05-20T00:21:03.431Z,89.20
2023-05-20T00:23:48.731Z,89.14
2023-05-20T00:26:34.112Z,89.39
2023-05-20T00:29:23.040Z,89.32
2023-05-20T00:32:08.411Z,89.62
2023-05-20T00:35:01.103Z,89.33
2023-05-20T00:37:46.753Z,89.36
2023-05-20T00:40:31.884Z,89.28
2023-05-20T00:43:17.265Z,89.57
2023-05-20T00:46:02.597Z,89.46
2023-05-20T00:48:48.195Z,89.71
2023-05-20T00:51:35.233Z,89.56
2023-05-20T00:54:21.974Z,89.52
2023-05-20T00:57:08.143Z,89.50
2023-05-20T00:59:54.226Z,89.75
2023-05-20T01:02:39.880Z,89.87
2023-05-20T01:05:25.751Z,90.11
2023-05-20T01:08:11.035Z,90.16
2023-05-20T01:11:05.303Z,90.36
2023-05-20T01:13:55.742Z,90.63
2023-05-20T01:16:43.521Z,90.84
2023-05-20T01:19:38.365Z,90.46
2023-05-20T01:22:26.853Z,90.50
2023-05-20T01:25:12.406Z,90.92
2023-05-20T01:27:58.209Z,91.01
2023-05-20T01:30:50.945Z,90.45
2023-05-20T01:33:37.877Z,89.89
2023-05-20T01:36:24.043Z,90.19
2023-05-20T01:39:09.926Z,89.87
2023-05-20T01:41:56.054Z,89.75
2023-05-20T01:44:41.898Z,89.73
2023-05-20T01:47:27.522Z,89.54
2023-05-20T01:50:12.915Z,89.39
2023-05-20T01:52:59.294Z,88.93
2023-05-20T01:55:44.555Z,88.91
2023-05-20T01:58:30.626Z,88.58
2023-05-20T02:01:15.991Z,88.55
2023-05-20T02:04:02.345Z,88.58
2023-05-20T02:06:49.398Z,88.50
2023-05-20T02:09:34.892Z,88.32
2023-05-20T02:12:21.394Z,88.67
2023-05-20T02:15:07.229Z,88.61
2023-05-20T02:17:53.875Z,88.67
2023-05-20T02:20:39.678Z,88.95
2023-05-20T02:23:25.108Z,88.73
2023-05-20T02:26:10.330Z,88.37
2023-05-20T02:28:55.844Z,89.02
2023-05-20T02:31:41.192Z,89.03
2023-05-20T02:34:27.714Z,88.88
2023-05-20T02:37:13.160Z,89.22
2023-05-20T02:39:58.392Z,89.15
2023-05-20T02:42:43.738Z,89.58
2023-05-20T02:45:29.317Z,89.42
2023-05-20T02:48:15.070Z,89.97
2023-05-20T02:51:00.419Z,89.66
2023-05-20T02:53:46.420Z,89.62
2023-05-20T02:56:32.587Z,89.48
2023-05-20T02:59:20.667Z,89.50
2023-05-20T03:02:06.135Z,89.70
2023-05-20T03:04:54.061Z,89.72
2023-05-20T03:07:39.768Z,90.04
2023-05-20T03:10:25.551Z,89.99
2023-05-20T03:13:11.747Z,89.72
2023-05-20T03:15:57.493Z,90.29
2023-05-20T03:18:42.965Z,90.08
2023-05-20T03:21:29.280Z,90.26
2023-05-20T03:24:14.965Z,90.26
2023-05-20T03:27:00.400Z,90.13
2023-05-20T03:29:45.514Z,90.14
2023-05-20T03:32:31.992Z,90.14
2023-05-20T03:35:17.685Z,90.18
2023-05-20T03:38:03.131Z,90.79
2023-05-20T03:40:49.569Z,90.84
2023-05-20T03:43:35.349Z,91.10
2023-05-20T03:46:20.850Z,91.48
2023-05-20T03:49:06.220Z,91.50
2023-05-20T03:51:51.548Z,91.60
2023-05-20T03:54:37.614Z,91.59
2023-05-20T03:57:24.524Z,91.44
2023-05-20T04:00:12.085Z,91.67
2023-05-20T04:03:02.133Z,91.71
2023-05-20T04:05:47.905Z,91.35
2023-05-20T04:08:38.304Z,91.93
2023-05-20T04:11:24.163Z,92.02
2023-05-20T04:14:11.192Z,91.84
2023-05-20T04:16:57.494Z,91.41
2023-05-20T04:19:45.063Z,91.12
2023-05-20T04:22:31.420Z,91.01
2023-05-20T04:25:17.178Z,90.64
2023-05-20T04:28:02.826Z,90.56
2023-05-20T04:30:48.340Z,90.67
2023-05-20T04:33:37.858Z,90.31
2023-05-20T04:36:28.736Z,90.17
2023-05-20T04:39:15.607Z,89.76
2023-05-20T04:42:02.927Z,89.79
2023-05-20T04:44:48.849Z,89.61
2023-05-20T04:47:38.728Z,89.86
2023-05-20T04:50:24.504Z,88.96
2023-05-20T04:53:09.904Z,89.24
2023-05-20T04:55:56.860Z,88.96
2023-05-20T04:58:42.747Z,89.03
2023-05-20T05:01:28.134Z,88.82
2023-05-20T05:04:13.901Z,88.72
2023-05-20T05:06:59.292Z,88.58
2023-05-20T05:09:44.611Z,88.73
2023-05-20T05:12:30.805Z,88.83
2023-05-20T05:15:17.348Z,89.07
2023-05-20T05:18:03.182Z,89.60
2023-05-20T05:20:49.090Z,88.19
2023-05-20T05:23:34.986Z,88.00
2023-05-20T05:26:20.980Z,87.78
2023-05-20T05:29:06.334Z,86.55
2023-05-20T05:31:52.072Z,87.56
2023-05-20T05:34:38.025Z,86.94
2023-05-20T05:37:23.222Z,85.75
2023-05-20T05:40:09.304Z,83.82
2023-05-20T05:42:55.316Z,82.56
2023-05-20T05:45:42.458Z,81.69
2023-05-20T05:48:28.279Z,80.82
2023-05-20T05:51:15.144Z,79.09
2023-05-20T05:54:00.751Z,79.19
2023-05-20T05:56:46.203Z,77.43
2023-05-20T05:59:31.947Z,77.01
2023-05-20T06:02:17.637Z,77.15
2023-05-20T06:05:04.351Z,75.94
2023-05-20T06:07:50.651Z,76.18
2023-05-20T06:10:37.231Z,74.42
2023-05-20T06:13:23.265Z,74.37
2023-05-20T06:16:09.593Z,73.21
2023-05-20T06:18:57.889Z,72.80
2023-05-20T06:21:43.961Z,72.29
2023-05-20T06:24:30.291Z,71.69
2023-05-20T06:27:16.540Z,71.51
2023-05-20T06:30:02.245Z,71.09
2023-05-20T06:32:48.712Z,70.50
2023-05-20T06:35:35.396Z,69.17
2023-05-20T06:38:22.412Z,68.63
2023-05-20T06:41:08.415Z,68.88
2023-05-20T06:43:53.880Z,67.79
2023-05-20T06:46:58.058Z,67.81
2023-05-20T06:49:46.592Z,68.50
2023-05-20T06:52:32.730Z,66.98
2023-05-20T06:55:18.635Z,67.16
2023-05-20T06:58:04.380Z,67.81
2023-05-20T07:00:51.089Z,67.67
2023-05-20T07:03:38.441Z,69.15
2023-05-20T07:06:24.253Z,68.21
2023-05-20T07:09:10.079Z,67.53
2023-05-20T07:11:56.860Z,67.45
2023-05-20T07:14:43.177Z,67.98
2023-05-20T07:17:29.473Z,68.16
2023-05-20T07:20:14.657Z,69.38
2023-05-20T07:23:01.037Z,69.88
2023-05-20T07:25:55.962Z,69.56
2023-05-20T07:28:41.418Z,69.95
2023-05-20T07:31:27.147Z,69.56
2023-05-20T07:34:12.721Z,69.98
2023-05-20T07:36:59.900Z,70.15
2023-05-20T07:39:45.322Z,70.32
2023-05-20T07:42:30.766Z,70.23
2023-05-20T07:45:19.153Z,69.50
2023-05-20T07:48:05.134Z,67.58
2023-05-20T07:50:50.898Z,66.85
2023-05-20T07:53:38.770Z,66.67
2023-05-20T07:56:24.804Z,64.22
2023-05-20T07:59:10.350Z,63.41
2023-05-20T08:02:01.110Z,63.79
2023-05-20T08:04:47.295Z,63.69
2023-05-20T08:07:32.658Z,62.98
2023-05-20T08:10:18.333Z,62.79
2023-05-20T08:13:05.686Z,63.61
2023-05-20T08:15:55.957Z,63.07
2023-05-20T08:18:42.931Z,61.48
2023-05-20T08:21:28.796Z,61.08
2023-05-20T08:24:14.789Z,61.51
2023-05-20T08:27:00.800Z,62.25
2023-05-20T08:29:46.111Z,60.20
2023-05-20T08:32:31.720Z,58.24
2023-05-20T08:35:17.836Z,57.02
2023-05-20T08:38:03.064Z,58.02
2023-05-20T08:40:56.497Z,57.37
2023-05-20T08:43:42.641Z,56.60
2023-05-20T08:46:30.219Z,55.97
2023-05-20T08:49:16.153Z,56.26
2023-05-20T08:52:03.283Z,52.79
2023-05-20T08:54:51.574Z,51.82
2023-05-20T08:57:38.325Z,51.77
2023-05-20T09:00:28.714Z,55.04
2023-05-20T09:03:14.414Z,57.03
2023-05-20T09:06:09.548Z,56.38
2023-05-20T09:08:55.200Z,55.45
2023-05-20T09:11:41.599Z,53.00
2023-05-20T09:14:29.919Z,52.46
2023-05-20T09:17:15.847Z,53.83
2023-05-20T09:20:01.633Z,54.15
2023-05-20T09:22:46.899Z,54.70
2023-05-20T09:25:34.421Z,56.04
2023-05-20T09:28:24.140Z,54.78
2023-05-20T09:31:09.797Z,55.54
2023-05-20T09:33:55.809Z,55.02
2023-05-20T09:36:44.389Z,55.16
2023-05-20T09:39:37.022Z,55.96
2023-05-20T09:42:26.605Z,55.37
2023-05-20T09:45:11.814Z,56.35
2023-05-20T09:47:58.207Z,54.82
2023-05-20T09:50:43.781Z,55.24
2023-05-20T09:53:29.120Z,54.40
2023-05-20T09:56:15.172Z,55.35
2023-05-20T09:59:02.559Z,56.01
2023-05-20T10:01:48.257Z,56.29
2023-05-20T10:04:37.270Z,55.81
2023-05-20T10:07:44.332Z,55.81
2023-05-20T10:10:51.065Z,56.00
2023-05-20T10:14:04.950Z,55.63
2023-05-20T10:17:08.845Z,55.33
2023-05-20T10:19:59.736Z,54.31
2023-05-20T10:22:56.059Z,53.69
2023-05-20T10:25:54.031Z,51.65
2023-05-20T10:28:41.669Z,51.85
2023-05-20T10:31:28.011Z,52.29
2023-05-20T10:34:18.146Z,52.68
2023-05-20T10:37:04.366Z,51.03
2023-05-20T10:39:49.628Z,51.06
2023-05-20T10:42:35.016Z,51.50
2023-05-20T10:45:28.772Z,51.85
2023-05-20T10:48:34.528Z,50.92
2023-05-20T10:51:21.285Z,50.85
2023-05-20T10:54:09.651Z,51.19
2023-05-20T10:56:55.641Z,51.84
2023-05-20T10:59:41.783Z,51.01
2023-05-20T11:02:28.694Z,50.64
2023-05-20T11:05:17.056Z,49.67
2023-05-20T11:08:08.011Z,51.42
2023-05-20T11:10:57.442Z,51.26
2023-05-20T11:13:43.205Z,50.05
2023-05-20T11:16:28.982Z,49.73
2023-05-20T11:19:16.421Z,50.75
2023-05-20T11:22:01.907Z,49.98
2023-05-20T11:24:47.506Z,50.02
2023-05-20T11:27:34.288Z,49.73
2023-05-20T11:30:20.751Z,49.84
2023-05-20T11:33:06.903Z,49.46
2023-05-20T11:35:54.098Z,49.54
2023-05-20T11:38:43.246Z,49.87
2023-05-20T11:41:29.728Z,48.97
2023-05-20T11:44:15.927Z,48.41
2023-05-20T11:47:03.682Z,48.29
2023-05-20T11:49:50.006Z,47.12
2023-05-20T11:52:35.391Z,46.32
2023-05-20T11:55:21.016Z,46.53
2023-05-20T11:58:06.679Z,46.84
2023-05-20T12:00:57.165Z,46.75
2023-05-20T12:03:51.427Z,47.99
2023-05-20T12:06:40.058Z,47.60
2023-05-20T12:09:26.796Z,45.97
2023-05-20T12:12:14.786Z,45.09
2023-05-20T12:15:00.694Z,45.61
2023-05-20T12:17:52.766Z,45.05
2023-05-20T12:20:39.328Z,45.41
2023-05-20T12:23:25.055Z,45.41
2023-05-20T12:26:11.401Z,46.28
2023-05-20T12:28:57.772Z,45.78
2023-05-20T12:31:44.077Z,44.72
2023-05-20T12:34:30.516Z,44.08
2023-05-20T12:37:16.435Z,44.54
2023-05-20T12:40:02.096Z,45.46
2023-05-20T12:42:48.668Z,44.53
2023-05-20T12:45:34.352Z,44.96
2023-05-20T12:48:20.086Z,44.25
2023-05-20T12:51:06.475Z,42.64
2023-05-20T12:53:51.985Z,43.32
2023-05-20T12:56:37.225Z,42.93
2023-05-20T12:59:22.815Z,42.15
2023-05-20T13:02:08.254Z,42.66
2023-05-20T13:04:54.309Z,43.06
2023-05-20T13:07:40.226Z,43.45
2023-05-20T13:10:25.757Z,43.98
2023-05-20T13:13:11.363Z,43.11
2023-05-20T13:15:58.091Z,42.59
2023-05-20T13:18:44.657Z,43.21
2023-05-20T13:21:31.819Z,43.62
2023-05-20T13:24:18.122Z,44.66
2023-05-20T13:27:03.921Z,45.01
2023-05-20T13:29:49.491Z,45.77
2023-05-20T13:32:35.041Z,43.92
2023-05-20T13:35:22.100Z,43.95
2023-05-20T13:38:08.197Z,42.60
2023-05-20T13:40:53.685Z,41.66
2023-05-20T13:43:42.107Z,42.64
2023-05-20T13:46:27.736Z,42.21
2023-05-20T13:49:12.864Z,42.59
2023-05-20T13:51:58.541Z,42.13
2023-05-20T13:54:46.791Z,41.72
2023-05-20T13:57:32.441Z,42.23
2023-05-20T14:00:18.067Z,42.04
2023-05-20T14:03:05.018Z,41.56
2023-05-20T14:05:51.325Z,41.21
2023-05-20T14:08:36.926Z,40.67
2023-05-20T14:11:22.394Z,38.68
2023-05-20T14:14:07.808Z,39.57
2023-05-20T14:16:53.551Z,40.66
2023-05-20T14:19:38.986Z,40.96
2023-05-20T14:22:24.791Z,41.32
2023-05-20T14:25:10.021Z,41.11
2023-05-20T14:27:55.455Z,41.24
2023-05-20T14:30:40.837Z,41.66
2023-05-20T14:33:26.151Z,42.29
2023-05-20T14:36:13.075Z,41.52
2023-05-20T14:38:59.587Z,42.36
2023-05-20T14:41:45.098Z,42.21
2023-05-20T14:44:31.352Z,42.45
2023-05-20T14:47:19.321Z,41.77
2023-05-20T14:50:05.412Z,40.75
2023-05-20T14:52:51.380Z,41.80
2023-05-20T14:55:37.058Z,41.98
2023-05-20T14:58:22.678Z,41.80
2023-05-20T15:01:08.115Z,42.00
2023-05-20T15:03:54.132Z,41.99
2023-05-20T15:06:39.598Z,42.93
2023-05-20T15:09:25.275Z,42.32
2023-05-20T15:12:11.324Z,41.81
2023-05-20T15:14:56.883Z,41.82
2023-05-20T15:17:42.569Z,40.47
2023-05-20T15:20:28.866Z,40.90
2023-05-20T15:23:14.132Z,40.96
2023-05-20T15:25:59.752Z,40.41
2023-05-20T15:28:45.568Z,40.83
2023-05-20T15:31:31.503Z,41.50
2023-05-20T15:34:18.345Z,41.31
2023-05-20T15:37:04.373Z,40.78
2023-05-20T15:39:50.055Z,41.62
2023-05-20T15:42:35.926Z,42.10
2023-05-20T15:45:21.863Z,42.55
2023-05-20T15:48:08.694Z,41.85
2023-05-20T15:50:54.035Z,41.24
2023-05-20T15:53:40.805Z,41.62
2023-05-20T15:56:26.356Z,41.65
2023-05-20T15:59:11.690Z,42.09
2023-05-20T16:01:56.999Z,42.06
2023-05-20T16:04:42.451Z,41.83
2023-05-20T16:07:28.081Z,42.34
2023-05-20T16:10:13.621Z,42.45
2023-05-20T16:13:03.089Z,41.92
2023-05-20T16:15:50.062Z,42.29
2023-05-20T16:18:35.432Z,42.62
2023-05-20T16:21:21.195Z,41.78
2023-05-20T16:24:06.849Z,41.85
2023-05-20T16:26:54.011Z,41.99
2023-05-20T16:29:39.952Z,42.57
2023-05-20T16:32:27.066Z,43.45
2023-05-20T16:35:14.313Z,43.14
2023-05-20T16:38:01.577Z,43.56
2023-05-20T16:40:47.246Z,43.99
2023-05-20T16:43:32.766Z,44.00
2023-05-20T16:46:18.180Z,44.31
2023-05-20T16:49:03.756Z,43.95
2023-05-20T16:51:52.176Z,44.18
2023-05-20T16:54:38.140Z,43.54
2023-05-20T16:57:23.852Z,43.66
2023-05-20T17:00:11.479Z,43.89
2023-05-20T17:02:56.796Z,44.00
2023-05-20T17:05:43.723Z,43.71
2023-05-20T17:08:29.934Z,43.82
2023-05-20T17:11:16.668Z,44.15
2023-05-20T17:14:03.016Z,44.21
2023-05-20T17:16:48.685Z,44.38
2023-05-20T17:19:34.086Z,44.79
2023-05-20T17:22:19.736Z,45.14
2023-05-20T17:25:05.876Z,44.96
2023-05-20T17:27:51.390Z,44.64
2023-05-20T17:30:37.051Z,44.83
2023-05-20T17:33:22.921Z,44.97
2023-05-20T17:36:08.754Z,45.29
2023-05-20T17:38:54.290Z,45.00
2023-05-20T17:41:40.926Z,45.31
2023-05-20T17:44:28.177Z,45.36
2023-05-20T17:47:14.692Z,45.56
2023-05-20T17:50:02.351Z,45.54
2023-05-20T17:52:47.884Z,46.23
2023-05-20T17:55:36.324Z,45.62
2023-05-20T17:58:24.887Z,45.75
2023-05-20T18:01:10.309Z,45.88
2023-05-20T18:03:57.391Z,45.84
2023-05-20T18:06:43.126Z,44.97
2023-05-20T18:09:28.510Z,44.74
2023-05-20T18:12:14.628Z,44.69
2023-05-20T18:15:00.167Z,44.41
2023-05-20T18:17:45.966Z,44.83
2023-05-20T18:20:31.828Z,44.38
2023-05-20T18:23:17.312Z,44.25
2023-05-20T18:26:06.944Z,44.37
2023-05-20T18:28:52.414Z,44.38
2023-05-20T18:31:38.550Z,44.51
2023-05-20T18:34:24.157Z,44.32
2023-05-20T18:37:09.758Z,44.08
2023-05-20T18:39:57.119Z,44.45
2023-05-20T18:42:42.381Z,44.15
2023-05-20T18:45:27.702Z,44.09
2023-05-20T18:48:17.927Z,44.08
2023-05-20T18:51:11.656Z,43.92
2023-05-20T18:53:57.094Z,44.16
2023-05-20T18:56:42.389Z,44.23
2023-05-20T18:59:27.916Z,44.23
2023-05-20T19:02:14.578Z,44.36
2023-05-20T19:05:01.582Z,44.24
2023-05-20T19:07:47.281Z,44.28
2023-05-20T19:10:32.976Z,44.23
2023-05-20T19:13:21.757Z,44.13
2023-05-20T19:16:07.752Z,44.31
2023-05-20T19:18:53.187Z,44.43
2023-05-20T19:21:41.921Z,44.47
2023-05-20T19:24:29.035Z,44.65
2023-05-20T19:27:14.267Z,44.78
2023-05-20T19:29:59.926Z,44.67
2023-05-20T19:32:45.534Z,44.76
2023-05-20T19:35:31.861Z,44.87
2023-05-20T19:38:17.829Z,45.06
2023-05-20T19:41:03.310Z,45.30
2023-05-20T19:43:49.318Z,45.10
2023-05-20T19:46:36.322Z,45.45
2023-05-20T19:49:22.237Z,45.80
2023-05-20T19:52:07.869Z,45.75
2023-05-20T19:54:53.453Z,45.79
2023-05-20T19:57:38.840Z,46.06
2023-05-20T20:00:24.352Z,46.00
2023-05-20T20:03:09.801Z,46.46
2023-05-20T20:05:55.474Z,46.55
2023-05-20T20:08:41.645Z,46.90
2023-05-20T20:11:27.329Z,47.11
2023-05-20T20:14:13.229Z,47.05
2023-05-20T20:16:59.856Z,47.35
2023-05-20T20:19:50.215Z,47.58
2023-05-20T20:22:38.871Z,47.52
2023-05-20T20:25:26.865Z,47.77
2023-05-20T20:28:12.658Z,49.52
2023-05-20T20:30:58.711Z,51.13
2023-05-20T20:33:44.237Z,51.70
2023-05-20T20:36:32.089Z,52.16
2023-05-20T20:39:20.978Z,52.75
2023-05-20T20:42:06.563Z,54.28
2023-05-20T20:44:52.983Z,55.10
2023-05-20T20:47:40.962Z,54.48
2023-05-20T20:50:28.285Z,54.84
2023-05-20T20:53:16.440Z,54.94
2023-05-20T20:56:01.629Z,54.66
2023-05-20T20:58:47.042Z,55.27
2023-05-20T21:01:36.403Z,55.66
2023-05-20T21:04:21.898Z,55.21
2023-05-20T21:07:07.298Z,55.19
2023-05-20T21:09:55.150Z,55.29
2023-05-20T21:12:40.574Z,55.26
2023-05-20T21:15:27.332Z,55.07
2023-05-20T21:18:14.025Z,55.38
2023-05-20T21:20:59.475Z,56.20
2023-05-20T21:23:44.925Z,56.31
2023-05-20T21:26:30.104Z,56.15
2023-05-20T21:29:15.697Z,55.74
2023-05-20T21:32:01.131Z,55.61
2023-05-20T21:34:46.176Z,55.82
2023-05-20T21:37:31.771Z,56.57
2023-05-20T21:40:17.295Z,56.75
2023-05-20T21:43:02.793Z,57.48
2023-05-20T21:45:48.078Z,58.03
2023-05-20T21:48:33.420Z,58.40
2023-05-20T21:51:18.845Z,58.45
2023-05-20T21:54:04.099Z,58.58
2023-05-20T21:56:49.573Z,59.15
2023-05-20T21:59:34.995Z,59.31
2023-05-20T22:02:20.616Z,59.68
2023-05-20T22:05:06.510Z,60.27
2023-05-20T22:07:53.002Z,60.36
2023-05-20T22:10:38.783Z,60.55
2023-05-20T22:13:26.128Z,61.19
2023-05-20T22:16:11.817Z,60.90
2023-05-20T22:18:57.350Z,61.03
2023-05-20T22:21:50.079Z,60.40
2023-05-20T22:24:36.356Z,59.92
2023-05-20T22:27:21.690Z,60.90
2023-05-20T22:30:08.328Z,61.22
2023-05-20T22:32:53.851Z,61.80
2023-05-20T22:35:39.137Z,62.59
2023-05-20T22:38:24.662Z,62.61
2023-05-20T22:41:10.370Z,62.37
2023-05-20T22:43:57.079Z,62.05
2023-05-20T22:46:42.514Z,62.09
2023-05-20T22:49:28.388Z,62.38
2023-05-20T22:52:13.668Z,62.38
2023-05-20T22:54:59.000Z,62.17
2023-05-20T22:57:44.376Z,62.11
2023-05-20T23:00:29.782Z,62.37
2023-05-20T23:03:15.204Z,62.84
2023-05-20T23:06:00.992Z,62.36
2023-05-20T23:08:47.409Z,62.30
2023-05-20T23:11:33.143Z,62.68
2023-05-20T23:14:19.951Z,63.01
2023-05-20T23:17:05.576Z,63.28
2023-05-20T23:19:51.502Z,63.50
2023-05-20T23:22:37.614Z,62.98
2023-05-20T23:25:24.442Z,63.16
2023-05-20T23:28:10.017Z,63.26
2023-05-20T23:30:56.595Z,63.39
2023-05-20T23:33:42.468Z,62.96
2023-05-20T23:36:34.416Z,63.11
2023-05-20T23:39:19.620Z,63.25
2023-05-20T23:42:05.386Z,63.31
2023-05-20T23:44:50.690Z,63.89
2023-05-20T23:47:36.535Z,64.43
2023-05-20T23:50:21.999Z,64.66
2023-05-20T23:53:07.258Z,64.76
2023-05-20T23:55:52.762Z,65.37
2023-05-20T23:58:38.124Z,65.12
